sensor_id;sensor_type;location;lat;lon;timestamp;P1;durP1;ratioP1;P2;durP2;ratioP2
68680;SDS011;55836;49.858;6.756;2022-11-20T00:01:46;10.63;;;8.13;;
68680;SDS011;55836;49.858;6.756;2022-11-20T00:04:12;10.50;;;7.67;;
68680;SDS011;55836;49.858;6.756;2022-11-20T00:06:38;9.57;;;7.43;;
68680;SDS011;55836;49.858;6.756;2022-11-20T00:09:04;10.43;;;7.50;;
68680;SDS011;55836;49.858;6.756;2022-11-20T00:11:30;11.60;;;7.97;;
68680;SDS011;55836;49.858;6.756;2022-11-20T00:13:58;10.17;;;7.67;;
68680;SDS011;55836;49.858;6.756;2022-11-20T00:16:24;13.77;;;8.27;;
68680;SDS011;55836;49.858;6.756;2022-11-20T00:18:51;10.23;;;7.97;;
68680;SDS011;55836;49.858;6.756;2022-11-20T00:21:18;10.80;;;8.13;;
68680;SDS011;55836;49.858;6.756;2022-11-20T00:23:45;10.80;;;8.63;;
68680;SDS011;55836;49.858;6.756;2022-11-20T00:26:12;9.77;;;7.17;;
68680;SDS011;55836;49.858;6.756;2022-11-20T00:28:39;11.57;;;7.30;;
68680;SDS011;55836;49.858;6.756;2022-11-20T00:31:09;10.20;;;7.33;;
68680;SDS011;55836;49.858;6.756;2022-11-20T00:33:35;12.67;;;8.33;;
68680;SDS011;55836;49.858;6.756;2022-11-20T00:36:05;12.90;;;8.87;;
68680;SDS011;55836;49.858;6.756;2022-11-20T00:38:32;11.30;;;8.20;;
68680;SDS011;55836;49.858;6.756;2022-11-20T00:40:59;12.37;;;8.40;;
68680;SDS011;55836;49.858;6.756;2022-11-20T00:43:25;9.60;;;7.60;;
68680;SDS011;55836;49.858;6.756;2022-11-20T00:45:56;11.47;;;8.60;;
68680;SDS011;55836;49.858;6.756;2022-11-20T00:48:22;11.37;;;7.97;;
68680;SDS011;55836;49.858;6.756;2022-11-20T00:50:53;14.63;;;8.60;;
68680;SDS011;55836;49.858;6.756;2022-11-20T00:53:19;12.53;;;8.20;;
68680;SDS011;55836;49.858;6.756;2022-11-20T00:55:52;13.70;;;8.80;;
68680;SDS011;55836;49.858;6.756;2022-11-20T00:58:18;12.57;;;7.87;;
68680;SDS011;55836;49.858;6.756;2022-11-20T01:00:44;11.20;;;7.50;;
68680;SDS011;55836;49.858;6.756;2022-11-20T01:03:10;11.33;;;8.00;;
68680;SDS011;55836;49.858;6.756;2022-11-20T01:05:36;12.40;;;8.80;;
68680;SDS011;55836;49.858;6.756;2022-11-20T01:08:02;11.97;;;8.57;;
68680;SDS011;55836;49.858;6.756;2022-11-20T01:10:28;11.80;;;7.90;;
68680;SDS011;55836;49.858;6.756;2022-11-20T01:12:54;12.23;;;7.97;;
68680;SDS011;55836;49.858;6.756;2022-11-20T01:15:39;10.67;;;7.27;;
68680;SDS011;55836;49.858;6.756;2022-11-20T01:18:06;11.57;;;8.40;;
68680;SDS011;55836;49.858;6.756;2022-11-20T01:20:35;13.30;;;7.83;;
68680;SDS011;55836;49.858;6.756;2022-11-20T01:23:01;13.13;;;8.57;;
68680;SDS011;55836;49.858;6.756;2022-11-20T01:25:27;11.63;;;8.27;;
68680;SDS011;55836;49.858;6.756;2022-11-20T01:27:53;13.03;;;8.97;;
68680;SDS011;55836;49.858;6.756;2022-11-20T01:30:19;14.13;;;8.27;;
68680;SDS011;55836;49.858;6.756;2022-11-20T01:32:45;11.00;;;8.00;;
68680;SDS011;55836;49.858;6.756;2022-11-20T01:35:11;12.70;;;8.07;;
68680;SDS011;55836;49.858;6.756;2022-11-20T01:37:37;16.20;;;8.60;;
68680;SDS011;55836;49.858;6.756;2022-11-20T01:40:03;14.70;;;8.37;;
68680;SDS011;55836;49.858;6.756;2022-11-20T01:42:30;10.77;;;8.03;;
68680;SDS011;55836;49.858;6.756;2022-11-20T01:48:00;12.17;;;8.57;;
68680;SDS011;55836;49.858;6.756;2022-11-20T01:50:26;12.07;;;8.33;;
68680;SDS011;55836;49.858;6.756;2022-11-20T01:53:02;13.73;;;8.40;;
68680;SDS011;55836;49.858;6.756;2022-11-20T01:55:33;11.77;;;8.87;;
68680;SDS011;55836;49.858;6.756;2022-11-20T01:58:00;11.57;;;8.43;;
68680;SDS011;55836;49.858;6.756;2022-11-20T02:00:27;12.73;;;9.20;;
68680;SDS011;55836;49.858;6.756;2022-11-20T02:03:00;11.60;;;8.23;;
68680;SDS011;55836;49.858;6.756;2022-11-20T02:07:54;12.70;;;8.77;;
68680;SDS011;55836;49.858;6.756;2022-11-20T02:10:20;13.13;;;9.30;;
68680;SDS011;55836;49.858;6.756;2022-11-20T02:12:46;15.63;;;10.50;;
68680;SDS011;55836;49.858;6.756;2022-11-20T02:15:32;14.33;;;8.60;;
68680;SDS011;55836;49.858;6.756;2022-11-20T02:17:58;12.10;;;8.40;;
68680;SDS011;55836;49.858;6.756;2022-11-20T02:20:25;12.17;;;8.57;;
68680;SDS011;55836;49.858;6.756;2022-11-20T02:25:23;14.70;;;9.20;;
68680;SDS011;55836;49.858;6.756;2022-11-20T02:27:50;13.33;;;8.97;;
68680;SDS011;55836;49.858;6.756;2022-11-20T02:30:16;12.40;;;8.50;;
68680;SDS011;55836;49.858;6.756;2022-11-20T02:32:43;13.50;;;9.00;;
68680;SDS011;55836;49.858;6.756;2022-11-20T02:35:09;14.13;;;9.50;;
68680;SDS011;55836;49.858;6.756;2022-11-20T02:37:37;14.83;;;9.60;;
68680;SDS011;55836;49.858;6.756;2022-11-20T02:40:05;15.60;;;9.27;;
68680;SDS011;55836;49.858;6.756;2022-11-20T02:42:31;13.60;;;8.80;;
68680;SDS011;55836;49.858;6.756;2022-11-20T02:44:57;14.57;;;10.33;;
68680;SDS011;55836;49.858;6.756;2022-11-20T02:47:23;14.50;;;9.70;;
68680;SDS011;55836;49.858;6.756;2022-11-20T02:49:49;15.63;;;10.20;;
68680;SDS011;55836;49.858;6.756;2022-11-20T02:52:15;12.50;;;8.90;;
68680;SDS011;55836;49.858;6.756;2022-11-20T02:54:41;16.17;;;10.07;;
68680;SDS011;55836;49.858;6.756;2022-11-20T02:57:07;13.33;;;9.50;;
68680;SDS011;55836;49.858;6.756;2022-11-20T02:59:33;13.60;;;9.67;;
68680;SDS011;55836;49.858;6.756;2022-11-20T03:01:59;13.87;;;9.13;;
68680;SDS011;55836;49.858;6.756;2022-11-20T03:04:25;12.90;;;8.57;;
68680;SDS011;55836;49.858;6.756;2022-11-20T03:06:51;15.50;;;9.73;;
68680;SDS011;55836;49.858;6.756;2022-11-20T03:09:17;17.27;;;10.17;;
68680;SDS011;55836;49.858;6.756;2022-11-20T03:11:43;15.47;;;9.67;;
68680;SDS011;55836;49.858;6.756;2022-11-20T03:14:09;16.00;;;10.00;;
68680;SDS011;55836;49.858;6.756;2022-11-20T03:16:35;14.27;;;9.43;;
68680;SDS011;55836;49.858;6.756;2022-11-20T03:19:01;13.20;;;9.70;;
68680;SDS011;55836;49.858;6.756;2022-11-20T03:21:27;15.67;;;9.90;;
68680;SDS011;55836;49.858;6.756;2022-11-20T03:23:54;14.73;;;9.77;;
68680;SDS011;55836;49.858;6.756;2022-11-20T03:26:21;15.50;;;10.20;;
68680;SDS011;55836;49.858;6.756;2022-11-20T03:28:48;14.80;;;10.40;;
68680;SDS011;55836;49.858;6.756;2022-11-20T03:31:15;14.87;;;10.20;;
68680;SDS011;55836;49.858;6.756;2022-11-20T03:33:42;15.33;;;9.37;;
68680;SDS011;55836;49.858;6.756;2022-11-20T03:36:09;15.13;;;9.87;;
68680;SDS011;55836;49.858;6.756;2022-11-20T03:38:35;18.53;;;10.10;;
68680;SDS011;55836;49.858;6.756;2022-11-20T03:41:06;18.70;;;9.80;;
68680;SDS011;55836;49.858;6.756;2022-11-20T03:43:33;14.73;;;10.10;;
68680;SDS011;55836;49.858;6.756;2022-11-20T03:45:59;15.53;;;10.17;;
68680;SDS011;55836;49.858;6.756;2022-11-20T03:48:25;17.73;;;10.43;;
68680;SDS011;55836;49.858;6.756;2022-11-20T03:50:52;17.40;;;10.73;;
68680;SDS011;55836;49.858;6.756;2022-11-20T03:53:18;21.17;;;10.40;;
68680;SDS011;55836;49.858;6.756;2022-11-20T03:55:45;18.20;;;11.63;;
68680;SDS011;55836;49.858;6.756;2022-11-20T03:58:15;15.90;;;10.33;;
68680;SDS011;55836;49.858;6.756;2022-11-20T04:00:43;16.23;;;9.70;;
68680;SDS011;55836;49.858;6.756;2022-11-20T04:03:09;17.80;;;10.53;;
68680;SDS011;55836;49.858;6.756;2022-11-20T04:05:35;16.50;;;10.40;;
68680;SDS011;55836;49.858;6.756;2022-11-20T04:08:01;18.57;;;11.37;;
68680;SDS011;55836;49.858;6.756;2022-11-20T04:10:27;20.40;;;10.80;;
68680;SDS011;55836;49.858;6.756;2022-11-20T04:12:53;14.80;;;10.17;;
68680;SDS011;55836;49.858;6.756;2022-11-20T04:15:19;15.93;;;10.33;;
68680;SDS011;55836;49.858;6.756;2022-11-20T04:17:45;19.27;;;11.10;;
68680;SDS011;55836;49.858;6.756;2022-11-20T04:20:11;15.20;;;10.20;;
68680;SDS011;55836;49.858;6.756;2022-11-20T04:22:37;15.27;;;10.13;;
68680;SDS011;55836;49.858;6.756;2022-11-20T04:25:03;18.30;;;10.63;;
68680;SDS011;55836;49.858;6.756;2022-11-20T04:27:30;17.73;;;10.93;;
68680;SDS011;55836;49.858;6.756;2022-11-20T04:29:56;20.90;;;10.53;;
68680;SDS011;55836;49.858;6.756;2022-11-20T04:32:22;18.80;;;10.83;;
68680;SDS011;55836;49.858;6.756;2022-11-20T04:34:48;17.50;;;11.30;;
68680;SDS011;55836;49.858;6.756;2022-11-20T04:37:14;20.40;;;11.00;;
68680;SDS011;55836;49.858;6.756;2022-11-20T04:39:40;20.27;;;10.80;;
68680;SDS011;55836;49.858;6.756;2022-11-20T04:42:07;18.07;;;10.83;;
68680;SDS011;55836;49.858;6.756;2022-11-20T04:44:52;20.17;;;11.87;;
68680;SDS011;55836;49.858;6.756;2022-11-20T04:47:18;19.77;;;11.93;;
68680;SDS011;55836;49.858;6.756;2022-11-20T04:49:44;18.83;;;11.50;;
68680;SDS011;55836;49.858;6.756;2022-11-20T04:52:10;21.67;;;12.17;;
68680;SDS011;55836;49.858;6.756;2022-11-20T04:54:36;22.20;;;11.90;;
68680;SDS011;55836;49.858;6.756;2022-11-20T04:57:02;17.57;;;10.90;;
68680;SDS011;55836;49.858;6.756;2022-11-20T04:59:28;16.70;;;11.07;;
68680;SDS011;55836;49.858;6.756;2022-11-20T05:01:54;19.93;;;11.37;;
68680;SDS011;55836;49.858;6.756;2022-11-20T05:04:20;18.73;;;10.90;;
68680;SDS011;55836;49.858;6.756;2022-11-20T05:06:47;17.83;;;10.43;;
68680;SDS011;55836;49.858;6.756;2022-11-20T05:09:13;21.93;;;10.73;;
68680;SDS011;55836;49.858;6.756;2022-11-20T05:11:39;19.63;;;12.00;;
68680;SDS011;55836;49.858;6.756;2022-11-20T05:14:05;18.80;;;10.23;;
68680;SDS011;55836;49.858;6.756;2022-11-20T05:16:31;18.50;;;10.83;;
68680;SDS011;55836;49.858;6.756;2022-11-20T05:18:59;18.50;;;10.77;;
68680;SDS011;55836;49.858;6.756;2022-11-20T05:21:25;18.00;;;10.70;;
68680;SDS011;55836;49.858;6.756;2022-11-20T05:23:52;22.33;;;12.53;;
68680;SDS011;55836;49.858;6.756;2022-11-20T05:26:19;23.50;;;12.73;;
68680;SDS011;55836;49.858;6.756;2022-11-20T05:28:49;25.77;;;13.10;;
68680;SDS011;55836;49.858;6.756;2022-11-20T05:31:16;21.23;;;13.30;;
68680;SDS011;55836;49.858;6.756;2022-11-20T05:33:43;20.10;;;12.43;;
68680;SDS011;55836;49.858;6.756;2022-11-20T05:36:10;19.53;;;11.87;;
68680;SDS011;55836;49.858;6.756;2022-11-20T05:38:36;19.57;;;10.03;;
68680;SDS011;55836;49.858;6.756;2022-11-20T05:41:03;16.87;;;10.93;;
68680;SDS011;55836;49.858;6.756;2022-11-20T05:43:31;14.33;;;8.67;;
68680;SDS011;55836;49.858;6.756;2022-11-20T05:45:57;13.10;;;8.57;;
68680;SDS011;55836;49.858;6.756;2022-11-20T05:48:23;12.67;;;8.07;;
68680;SDS011;55836;49.858;6.756;2022-11-20T05:50:49;17.50;;;10.27;;
68680;SDS011;55836;49.858;6.756;2022-11-20T05:53:15;25.53;;;16.80;;
68680;SDS011;55836;49.858;6.756;2022-11-20T05:55:41;23.80;;;13.97;;
68680;SDS011;55836;49.858;6.756;2022-11-20T05:58:07;22.93;;;14.17;;
68680;SDS011;55836;49.858;6.756;2022-11-20T06:00:33;21.90;;;13.30;;
68680;SDS011;55836;49.858;6.756;2022-11-20T06:03:00;24.50;;;15.10;;
68680;SDS011;55836;49.858;6.756;2022-11-20T06:05:26;23.43;;;16.30;;
68680;SDS011;55836;49.858;6.756;2022-11-20T06:07:52;22.13;;;14.40;;
68680;SDS011;55836;49.858;6.756;2022-11-20T06:10:18;21.20;;;15.53;;
68680;SDS011;55836;49.858;6.756;2022-11-20T06:12:44;21.10;;;15.30;;
68680;SDS011;55836;49.858;6.756;2022-11-20T06:15:10;22.73;;;16.33;;
68680;SDS011;55836;49.858;6.756;2022-11-20T06:17:36;20.23;;;14.37;;
68680;SDS011;55836;49.858;6.756;2022-11-20T06:20:02;20.27;;;13.47;;
68680;SDS011;55836;49.858;6.756;2022-11-20T06:22:28;18.83;;;12.93;;
68680;SDS011;55836;49.858;6.756;2022-11-20T06:24:54;25.77;;;13.37;;
68680;SDS011;55836;49.858;6.756;2022-11-20T06:27:20;20.33;;;13.03;;
68680;SDS011;55836;49.858;6.756;2022-11-20T06:29:46;19.13;;;13.47;;
68680;SDS011;55836;49.858;6.756;2022-11-20T06:32:12;19.23;;;13.77;;
68680;SDS011;55836;49.858;6.756;2022-11-20T06:34:38;36.17;;;22.90;;
68680;SDS011;55836;49.858;6.756;2022-11-20T06:37:04;31.53;;;18.93;;
68680;SDS011;55836;49.858;6.756;2022-11-20T06:39:30;26.87;;;19.37;;
68680;SDS011;55836;49.858;6.756;2022-11-20T06:41:56;25.80;;;16.23;;
68680;SDS011;55836;49.858;6.756;2022-11-20T06:44:22;26.10;;;16.10;;
68680;SDS011;55836;49.858;6.756;2022-11-20T06:46:48;26.03;;;17.53;;
68680;SDS011;55836;49.858;6.756;2022-11-20T06:49:14;23.40;;;17.17;;
68680;SDS011;55836;49.858;6.756;2022-11-20T06:51:40;23.53;;;16.50;;
68680;SDS011;55836;49.858;6.756;2022-11-20T06:54:06;22.17;;;16.50;;
68680;SDS011;55836;49.858;6.756;2022-11-20T06:56:32;17.47;;;12.47;;
68680;SDS011;55836;49.858;6.756;2022-11-20T06:58:58;18.43;;;11.43;;
68680;SDS011;55836;49.858;6.756;2022-11-20T07:01:24;16.30;;;10.50;;
68680;SDS011;55836;49.858;6.756;2022-11-20T07:03:50;16.63;;;11.07;;
68680;SDS011;55836;49.858;6.756;2022-11-20T07:06:16;17.87;;;11.13;;
68680;SDS011;55836;49.858;6.756;2022-11-20T07:08:42;21.17;;;10.53;;
68680;SDS011;55836;49.858;6.756;2022-11-20T07:11:11;15.07;;;9.40;;
68680;SDS011;55836;49.858;6.756;2022-11-20T07:13:37;17.47;;;10.17;;
68680;SDS011;55836;49.858;6.756;2022-11-20T07:16:04;21.40;;;10.37;;
68680;SDS011;55836;49.858;6.756;2022-11-20T07:18:30;18.27;;;10.57;;
68680;SDS011;55836;49.858;6.756;2022-11-20T07:20:59;16.77;;;10.70;;
68680;SDS011;55836;49.858;6.756;2022-11-20T07:23:26;18.43;;;10.80;;
68680;SDS011;55836;49.858;6.756;2022-11-20T07:25:52;19.47;;;10.13;;
68680;SDS011;55836;49.858;6.756;2022-11-20T07:28:18;19.87;;;11.43;;
68680;SDS011;55836;49.858;6.756;2022-11-20T07:30:48;20.20;;;10.57;;
68680;SDS011;55836;49.858;6.756;2022-11-20T07:33:15;19.40;;;10.53;;
68680;SDS011;55836;49.858;6.756;2022-11-20T07:35:41;19.90;;;10.70;;
68680;SDS011;55836;49.858;6.756;2022-11-20T07:38:07;17.83;;;10.67;;
68680;SDS011;55836;49.858;6.756;2022-11-20T07:40:33;19.93;;;10.30;;
68680;SDS011;55836;49.858;6.756;2022-11-20T07:42:59;18.97;;;10.47;;
68680;SDS011;55836;49.858;6.756;2022-11-20T07:45:25;20.43;;;11.93;;
68680;SDS011;55836;49.858;6.756;2022-11-20T07:47:51;19.13;;;11.00;;
68680;SDS011;55836;49.858;6.756;2022-11-20T07:50:17;17.53;;;10.13;;
68680;SDS011;55836;49.858;6.756;2022-11-20T07:52:44;17.53;;;10.47;;
68680;SDS011;55836;49.858;6.756;2022-11-20T07:55:10;19.53;;;11.53;;
68680;SDS011;55836;49.858;6.756;2022-11-20T07:57:36;19.60;;;10.57;;
68680;SDS011;55836;49.858;6.756;2022-11-20T08:00:03;19.13;;;10.80;;
68680;SDS011;55836;49.858;6.756;2022-11-20T08:02:29;17.87;;;10.27;;
68680;SDS011;55836;49.858;6.756;2022-11-20T08:04:55;20.93;;;11.37;;
68680;SDS011;55836;49.858;6.756;2022-11-20T08:07:21;20.67;;;11.67;;
68680;SDS011;55836;49.858;6.756;2022-11-20T08:09:47;20.57;;;11.03;;
68680;SDS011;55836;49.858;6.756;2022-11-20T08:12:20;21.43;;;10.80;;
68680;SDS011;55836;49.858;6.756;2022-11-20T08:15:05;18.93;;;10.83;;
68680;SDS011;55836;49.858;6.756;2022-11-20T08:17:32;21.67;;;11.20;;
68680;SDS011;55836;49.858;6.756;2022-11-20T08:19:58;22.83;;;11.27;;
68680;SDS011;55836;49.858;6.756;2022-11-20T08:22:24;21.83;;;11.53;;
68680;SDS011;55836;49.858;6.756;2022-11-20T08:24:50;23.43;;;12.73;;
68680;SDS011;55836;49.858;6.756;2022-11-20T08:27:16;23.70;;;12.77;;
68680;SDS011;55836;49.858;6.756;2022-11-20T08:29:42;23.27;;;12.93;;
68680;SDS011;55836;49.858;6.756;2022-11-20T08:32:08;30.97;;;17.77;;
68680;SDS011;55836;49.858;6.756;2022-11-20T08:34:34;26.27;;;14.90;;
68680;SDS011;55836;49.858;6.756;2022-11-20T08:37:01;26.23;;;15.63;;
68680;SDS011;55836;49.858;6.756;2022-11-20T08:39:28;23.50;;;14.13;;
68680;SDS011;55836;49.858;6.756;2022-11-20T08:41:54;24.20;;;15.20;;
68680;SDS011;55836;49.858;6.756;2022-11-20T08:44:20;23.67;;;14.70;;
68680;SDS011;55836;49.858;6.756;2022-11-20T08:46:46;23.60;;;13.63;;
68680;SDS011;55836;49.858;6.756;2022-11-20T08:49:12;27.03;;;15.40;;
68680;SDS011;55836;49.858;6.756;2022-11-20T08:51:39;24.20;;;13.90;;
68680;SDS011;55836;49.858;6.756;2022-11-20T08:54:05;26.90;;;15.00;;
68680;SDS011;55836;49.858;6.756;2022-11-20T08:56:31;27.60;;;14.43;;
68680;SDS011;55836;49.858;6.756;2022-11-20T08:58:58;25.93;;;13.40;;
68680;SDS011;55836;49.858;6.756;2022-11-20T09:01:24;22.37;;;12.50;;
68680;SDS011;55836;49.858;6.756;2022-11-20T09:03:50;23.13;;;13.10;;
68680;SDS011;55836;49.858;6.756;2022-11-20T09:06:17;22.80;;;11.90;;
68680;SDS011;55836;49.858;6.756;2022-11-20T09:08:43;24.30;;;14.10;;
68680;SDS011;55836;49.858;6.756;2022-11-20T09:11:09;23.10;;;12.63;;
68680;SDS011;55836;49.858;6.756;2022-11-20T09:13:35;25.80;;;14.97;;
68680;SDS011;55836;49.858;6.756;2022-11-20T09:16:03;30.00;;;17.40;;
68680;SDS011;55836;49.858;6.756;2022-11-20T09:18:30;24.07;;;13.83;;
68680;SDS011;55836;49.858;6.756;2022-11-20T09:21:01;26.73;;;15.87;;
68680;SDS011;55836;49.858;6.756;2022-11-20T09:23:30;25.27;;;14.77;;
68680;SDS011;55836;49.858;6.756;2022-11-20T09:25:57;22.07;;;13.23;;
68680;SDS011;55836;49.858;6.756;2022-11-20T09:28:25;29.57;;;14.87;;
68680;SDS011;55836;49.858;6.756;2022-11-20T09:30:51;26.77;;;16.47;;
68680;SDS011;55836;49.858;6.756;2022-11-20T09:33:17;22.33;;;14.07;;
68680;SDS011;55836;49.858;6.756;2022-11-20T09:35:44;26.10;;;14.63;;
68680;SDS011;55836;49.858;6.756;2022-11-20T09:38:10;30.17;;;16.23;;
68680;SDS011;55836;49.858;6.756;2022-11-20T09:40:37;24.63;;;14.30;;
68680;SDS011;55836;49.858;6.756;2022-11-20T09:43:12;19.00;;;12.40;;
68680;SDS011;55836;49.858;6.756;2022-11-20T09:55:48;24.50;;;15.50;;
68680;SDS011;55836;49.858;6.756;2022-11-20T09:58:25;24.23;;;15.73;;
68680;SDS011;55836;49.858;6.756;2022-11-20T10:00:54;22.87;;;15.20;;
68680;SDS011;55836;49.858;6.756;2022-11-20T10:03:41;23.10;;;13.50;;
68680;SDS011;55836;49.858;6.756;2022-11-20T10:06:11;24.47;;;15.83;;
68680;SDS011;55836;49.858;6.756;2022-11-20T10:08:40;25.27;;;13.87;;
68680;SDS011;55836;49.858;6.756;2022-11-20T10:11:15;21.43;;;16.63;;
68680;SDS011;55836;49.858;6.756;2022-11-20T10:29:33;15.87;;;10.67;;
68680;SDS011;55836;49.858;6.756;2022-11-20T10:32:04;12.03;;;9.50;;
68680;SDS011;55836;49.858;6.756;2022-11-20T10:37:08;12.80;;;8.30;;
68680;SDS011;55836;49.858;6.756;2022-11-20T10:39:37;11.83;;;8.43;;
68680;SDS011;55836;49.858;6.756;2022-11-20T10:42:08;14.70;;;10.30;;
68680;SDS011;55836;49.858;6.756;2022-11-20T10:44:36;11.57;;;6.90;;
68680;SDS011;55836;49.858;6.756;2022-11-20T10:47:24;10.27;;;6.93;;
68680;SDS011;55836;49.858;6.756;2022-11-20T10:49:52;14.23;;;9.50;;
68680;SDS011;55836;49.858;6.756;2022-11-20T11:00:00;12.10;;;7.70;;
68680;SDS011;55836;49.858;6.756;2022-11-20T11:03:00;11.70;;;6.60;;
68680;SDS011;55836;49.858;6.756;2022-11-20T11:07:46;15.10;;;8.90;;
68680;SDS011;55836;49.858;6.756;2022-11-20T11:12:44;20.47;;;9.83;;
68680;SDS011;55836;49.858;6.756;2022-11-20T11:15:24;16.87;;;7.47;;
68680;SDS011;55836;49.858;6.756;2022-11-20T11:17:50;11.17;;;6.37;;
68680;SDS011;55836;49.858;6.756;2022-11-20T11:20:18;11.53;;;5.37;;
68680;SDS011;55836;49.858;6.756;2022-11-20T11:22:48;8.17;;;4.80;;
68680;SDS011;55836;49.858;6.756;2022-11-20T11:27:47;6.27;;;4.20;;
68680;SDS011;55836;49.858;6.756;2022-11-20T11:30:14;6.47;;;4.13;;
68680;SDS011;55836;49.858;6.756;2022-11-20T11:32:41;7.10;;;4.17;;
68680;SDS011;55836;49.858;6.756;2022-11-20T11:35:19;7.63;;;4.73;;
68680;SDS011;55836;49.858;6.756;2022-11-20T11:37:45;6.00;;;4.43;;
68680;SDS011;55836;49.858;6.756;2022-11-20T11:40:12;8.60;;;4.73;;
68680;SDS011;55836;49.858;6.756;2022-11-20T11:42:49;10.50;;;4.90;;
68680;SDS011;55836;49.858;6.756;2022-11-20T11:45:16;10.93;;;4.60;;
68680;SDS011;55836;49.858;6.756;2022-11-20T11:52:45;6.90;;;3.97;;
68680;SDS011;55836;49.858;6.756;2022-11-20T11:55:14;7.67;;;4.07;;
68680;SDS011;55836;49.858;6.756;2022-11-20T12:02:42;7.67;;;4.03;;
68680;SDS011;55836;49.858;6.756;2022-11-20T12:07:43;7.43;;;4.43;;
68680;SDS011;55836;49.858;6.756;2022-11-20T12:13:01;6.10;;;3.20;;
68680;SDS011;55836;49.858;6.756;2022-11-20T12:15:31;5.00;;;2.87;;
68680;SDS011;55836;49.858;6.756;2022-11-20T12:17:59;5.73;;;2.97;;
68680;SDS011;55836;49.858;6.756;2022-11-20T12:20:35;5.57;;;3.30;;
68680;SDS011;55836;49.858;6.756;2022-11-20T12:23:07;8.37;;;3.20;;
68680;SDS011;55836;49.858;6.756;2022-11-20T12:25:35;6.27;;;2.60;;
68680;SDS011;55836;49.858;6.756;2022-11-20T12:30:28;7.37;;;4.20;;
68680;SDS011;55836;49.858;6.756;2022-11-20T12:33:16;7.50;;;3.70;;
68680;SDS011;55836;49.858;6.756;2022-11-20T12:48:39;6.00;;;2.23;;
68680;SDS011;55836;49.858;6.756;2022-11-20T13:06:57;5.53;;;2.40;;
68680;SDS011;55836;49.858;6.756;2022-11-20T13:09:23;7.23;;;2.33;;
68680;SDS011;55836;49.858;6.756;2022-11-20T13:14:37;4.90;;;2.27;;
68680;SDS011;55836;49.858;6.756;2022-11-20T13:19:37;7.17;;;2.90;;
68680;SDS011;55836;49.858;6.756;2022-11-20T13:22:04;3.47;;;2.30;;
68680;SDS011;55836;49.858;6.756;2022-11-20T13:24:30;5.80;;;2.40;;
68680;SDS011;55836;49.858;6.756;2022-11-20T13:27:00;5.83;;;2.67;;
68680;SDS011;55836;49.858;6.756;2022-11-20T13:29:27;4.30;;;3.03;;
68680;SDS011;55836;49.858;6.756;2022-11-20T13:32:02;7.17;;;2.93;;
68680;SDS011;55836;49.858;6.756;2022-11-20T13:34:28;11.57;;;5.30;;
68680;SDS011;55836;49.858;6.756;2022-11-20T13:36:55;6.83;;;2.83;;
68680;SDS011;55836;49.858;6.756;2022-11-20T13:41:55;3.80;;;2.10;;
68680;SDS011;55836;49.858;6.756;2022-11-20T13:44:34;6.83;;;2.60;;
68680;SDS011;55836;49.858;6.756;2022-11-20T13:47:03;5.83;;;3.13;;
68680;SDS011;55836;49.858;6.756;2022-11-20T13:54:52;10.40;;;3.20;;
68680;SDS011;55836;49.858;6.756;2022-11-20T13:57:30;6.07;;;3.13;;
68680;SDS011;55836;49.858;6.756;2022-11-20T14:02:26;7.43;;;2.70;;
68680;SDS011;55836;49.858;6.756;2022-11-20T14:04:53;6.63;;;2.63;;
68680;SDS011;55836;49.858;6.756;2022-11-20T14:07:21;4.47;;;2.73;;
68680;SDS011;55836;49.858;6.756;2022-11-20T14:09:56;11.80;;;3.63;;
68680;SDS011;55836;49.858;6.756;2022-11-20T14:12:30;3.60;;;2.47;;
68680;SDS011;55836;49.858;6.756;2022-11-20T14:14:56;5.70;;;2.77;;
68680;SDS011;55836;49.858;6.756;2022-11-20T14:17:24;8.03;;;3.07;;
68680;SDS011;55836;49.858;6.756;2022-11-20T14:19:51;11.53;;;5.80;;
68680;SDS011;55836;49.858;6.756;2022-11-20T14:22:24;3.80;;;2.47;;
68680;SDS011;55836;49.858;6.756;2022-11-20T14:27:36;3.57;;;2.53;;
68680;SDS011;55836;49.858;6.756;2022-11-20T14:30:03;4.60;;;2.70;;
68680;SDS011;55836;49.858;6.756;2022-11-20T14:32:29;5.17;;;3.07;;
68680;SDS011;55836;49.858;6.756;2022-11-20T14:34:57;5.90;;;2.60;;
68680;SDS011;55836;49.858;6.756;2022-11-20T14:37:24;6.33;;;2.40;;
68680;SDS011;55836;49.858;6.756;2022-11-20T14:39:52;7.50;;;2.77;;
68680;SDS011;55836;49.858;6.756;2022-11-20T14:42:20;12.77;;;2.97;;
68680;SDS011;55836;49.858;6.756;2022-11-20T14:44:47;10.13;;;2.77;;
68680;SDS011;55836;49.858;6.756;2022-11-20T14:47:15;7.43;;;3.50;;
68680;SDS011;55836;49.858;6.756;2022-11-20T14:49:43;6.83;;;2.83;;
68680;SDS011;55836;49.858;6.756;2022-11-20T14:52:19;7.60;;;3.60;;
68680;SDS011;55836;49.858;6.756;2022-11-20T15:02:42;6.30;;;2.93;;
68680;SDS011;55836;49.858;6.756;2022-11-20T15:05:08;3.27;;;2.20;;
68680;SDS011;55836;49.858;6.756;2022-11-20T15:07:36;6.60;;;3.00;;
68680;SDS011;55836;49.858;6.756;2022-11-20T15:10:06;3.27;;;2.40;;
68680;SDS011;55836;49.858;6.756;2022-11-20T15:12:33;4.80;;;2.23;;
68680;SDS011;55836;49.858;6.756;2022-11-20T15:15:00;5.53;;;2.33;;
68680;SDS011;55836;49.858;6.756;2022-11-20T15:17:27;6.10;;;2.43;;
68680;SDS011;55836;49.858;6.756;2022-11-20T15:19:53;5.93;;;3.00;;
68680;SDS011;55836;49.858;6.756;2022-11-20T15:22:20;11.13;;;3.00;;
68680;SDS011;55836;49.858;6.756;2022-11-20T15:24:46;6.37;;;2.57;;
68680;SDS011;55836;49.858;6.756;2022-11-20T15:27:12;5.73;;;2.73;;
68680;SDS011;55836;49.858;6.756;2022-11-20T15:29:38;6.03;;;3.10;;
68680;SDS011;55836;49.858;6.756;2022-11-20T15:32:04;3.83;;;2.57;;
68680;SDS011;55836;49.858;6.756;2022-11-20T15:34:30;5.03;;;3.10;;
68680;SDS011;55836;49.858;6.756;2022-11-20T15:36:56;3.90;;;2.43;;
68680;SDS011;55836;49.858;6.756;2022-11-20T15:39:22;4.93;;;2.90;;
68680;SDS011;55836;49.858;6.756;2022-11-20T15:41:48;3.73;;;2.47;;
68680;SDS011;55836;49.858;6.756;2022-11-20T15:44:14;4.53;;;2.57;;
68680;SDS011;55836;49.858;6.756;2022-11-20T15:46:40;8.80;;;3.40;;
68680;SDS011;55836;49.858;6.756;2022-11-20T15:49:11;7.43;;;3.75;;
68680;SDS011;55836;49.858;6.756;2022-11-20T15:51:38;7.43;;;3.50;;
68680;SDS011;55836;49.858;6.756;2022-11-20T15:54:11;4.73;;;2.80;;
68680;SDS011;55836;49.858;6.756;2022-11-20T15:56:38;7.07;;;3.10;;
68680;SDS011;55836;49.858;6.756;2022-11-20T15:59:04;7.77;;;3.70;;
68680;SDS011;55836;49.858;6.756;2022-11-20T16:01:34;9.37;;;3.13;;
68680;SDS011;55836;49.858;6.756;2022-11-20T16:04:00;6.87;;;3.17;;
68680;SDS011;55836;49.858;6.756;2022-11-20T16:06:26;9.00;;;5.37;;
68680;SDS011;55836;49.858;6.756;2022-11-20T16:08:52;7.10;;;4.63;;
68680;SDS011;55836;49.858;6.756;2022-11-20T16:11:18;5.40;;;3.53;;
68680;SDS011;55836;49.858;6.756;2022-11-20T16:13:44;12.80;;;4.23;;
68680;SDS011;55836;49.858;6.756;2022-11-20T16:16:31;9.93;;;4.60;;
68680;SDS011;55836;49.858;6.756;2022-11-20T16:18:58;7.90;;;5.30;;
68680;SDS011;55836;49.858;6.756;2022-11-20T16:21:24;8.07;;;4.87;;
68680;SDS011;55836;49.858;6.756;2022-11-20T16:24:00;6.93;;;4.23;;
68680;SDS011;55836;49.858;6.756;2022-11-20T16:26:26;9.43;;;4.83;;
68680;SDS011;55836;49.858;6.756;2022-11-20T16:28:53;9.63;;;5.97;;
68680;SDS011;55836;49.858;6.756;2022-11-20T16:31:19;6.33;;;3.87;;
68680;SDS011;55836;49.858;6.756;2022-11-20T16:33:49;8.73;;;3.53;;
68680;SDS011;55836;49.858;6.756;2022-11-20T16:36:16;7.27;;;4.70;;
68680;SDS011;55836;49.858;6.756;2022-11-20T16:38:42;8.67;;;3.90;;